sensor_id;sensor_type;location;lat;lon;timestamp;P1;durP1;ratioP1;P2;durP2;ratioP2
22985;SDS011;11659;51.092;7.080;2022-09-12T00:00:27;14.73;;;9.87;;
22985;SDS011;11659;51.092;7.080;2022-09-12T00:02:56;11.83;;;8.23;;
22985;SDS011;11659;51.092;7.080;2022-09-12T00:05:23;16.13;;;10.03;;
22985;SDS011;11659;51.092;7.080;2022-09-12T00:07:52;13.63;;;10.23;;
22985;SDS011;11659;51.092;7.080;2022-09-12T00:10:18;16.17;;;10.60;;
22985;SDS011;11659;51.092;7.080;2022-09-12T00:12:44;14.20;;;10.20;;
22985;SDS011;11659;51.092;7.080;2022-09-12T00:15:10;14.27;;;9.57;;
22985;SDS011;11659;51.092;7.080;2022-09-12T00:17:36;12.93;;;8.93;;
22985;SDS011;11659;51.092;7.080;2022-09-12T00:20:04;14.60;;;9.63;;
22985;SDS011;11659;51.092;7.080;2022-09-12T00:22:32;13.30;;;9.13;;
22985;SDS011;11659;51.092;7.080;2022-09-12T00:24:59;13.13;;;9.10;;
22985;SDS011;11659;51.092;7.080;2022-09-12T00:27:25;10.50;;;8.27;;
22985;SDS011;11659;51.092;7.080;2022-09-12T00:29:52;13.03;;;8.17;;
22985;SDS011;11659;51.092;7.080;2022-09-12T00:32:18;11.87;;;8.63;;
22985;SDS011;11659;51.092;7.080;2022-09-12T00:34:44;11.37;;;8.40;;
22985;SDS011;11659;51.092;7.080;2022-09-12T00:37:10;12.87;;;9.13;;
22985;SDS011;11659;51.092;7.080;2022-09-12T00:39:36;12.23;;;8.70;;
22985;SDS011;11659;51.092;7.080;2022-09-12T00:42:04;11.67;;;8.10;;
22985;SDS011;11659;51.092;7.080;2022-09-12T00:44:44;11.10;;;7.43;;
22985;SDS011;11659;51.092;7.080;2022-09-12T00:47:13;12.47;;;8.73;;
22985;SDS011;11659;51.092;7.080;2022-09-12T00:49:44;10.93;;;7.90;;
22985;SDS011;11659;51.092;7.080;2022-09-12T00:52:17;11.20;;;8.33;;
22985;SDS011;11659;51.092;7.080;2022-09-12T00:54:46;10.90;;;8.07;;
22985;SDS011;11659;51.092;7.080;2022-09-12T00:57:18;11.70;;;8.10;;
22985;SDS011;11659;51.092;7.080;2022-09-12T00:59:47;10.73;;;8.03;;
22985;SDS011;11659;51.092;7.080;2022-09-12T01:02:16;12.90;;;8.23;;
22985;SDS011;11659;51.092;7.080;2022-09-12T01:04:42;10.93;;;7.97;;
22985;SDS011;11659;51.092;7.080;2022-09-12T01:07:09;10.23;;;7.97;;
22985;SDS011;11659;51.092;7.080;2022-09-12T01:09:36;11.20;;;8.07;;
22985;SDS011;11659;51.092;7.080;2022-09-12T01:12:03;10.40;;;7.73;;
22985;SDS011;11659;51.092;7.080;2022-09-12T01:14:31;9.63;;;7.03;;
22985;SDS011;11659;51.092;7.080;2022-09-12T01:16:58;11.17;;;7.20;;
22985;SDS011;11659;51.092;7.080;2022-09-12T01:19:31;10.00;;;7.40;;
22985;SDS011;11659;51.092;7.080;2022-09-12T01:22:24;9.93;;;7.33;;
22985;SDS011;11659;51.092;7.080;2022-09-12T01:25:15;10.70;;;7.67;;
22985;SDS011;11659;51.092;7.080;2022-09-12T01:27:57;9.17;;;7.10;;
22985;SDS011;11659;51.092;7.080;2022-09-12T01:30:43;9.50;;;6.93;;
22985;SDS011;11659;51.092;7.080;2022-09-12T01:33:27;10.00;;;7.10;;
22985;SDS011;11659;51.092;7.080;2022-09-12T01:36:06;9.37;;;6.83;;
22985;SDS011;11659;51.092;7.080;2022-09-12T01:38:43;11.27;;;7.10;;
22985;SDS011;11659;51.092;7.080;2022-09-12T01:41:16;11.13;;;6.90;;
22985;SDS011;11659;51.092;7.080;2022-09-12T01:43:48;10.10;;;7.00;;
22985;SDS011;11659;51.092;7.080;2022-09-12T01:46:26;10.57;;;7.20;;
22985;SDS011;11659;51.092;7.080;2022-09-12T01:48:58;9.23;;;6.80;;
22985;SDS011;11659;51.092;7.080;2022-09-12T01:51:30;8.93;;;6.43;;
22985;SDS011;11659;51.092;7.080;2022-09-12T01:54:01;9.10;;;6.57;;
22985;SDS011;11659;51.092;7.080;2022-09-12T01:56:33;9.17;;;6.50;;
22985;SDS011;11659;51.092;7.080;2022-09-12T01:59:03;9.07;;;6.93;;
22985;SDS011;11659;51.092;7.080;2022-09-12T02:01:38;9.70;;;6.77;;
22985;SDS011;11659;51.092;7.080;2022-09-12T02:04:07;9.67;;;6.80;;
22985;SDS011;11659;51.092;7.080;2022-09-12T02:06:38;8.73;;;6.57;;
22985;SDS011;11659;51.092;7.080;2022-09-12T02:09:09;8.67;;;6.43;;
22985;SDS011;11659;51.092;7.080;2022-09-12T02:11:40;9.60;;;6.47;;
22985;SDS011;11659;51.092;7.080;2022-09-12T02:14:10;8.50;;;6.03;;
22985;SDS011;11659;51.092;7.080;2022-09-12T02:16:41;8.10;;;6.07;;
22985;SDS011;11659;51.092;7.080;2022-09-12T02:19:09;8.40;;;6.00;;
22985;SDS011;11659;51.092;7.080;2022-09-12T02:21:40;8.53;;;6.10;;
22985;SDS011;11659;51.092;7.080;2022-09-12T02:24:11;8.90;;;6.40;;
22985;SDS011;11659;51.092;7.080;2022-09-12T02:26:42;7.93;;;5.87;;
22985;SDS011;11659;51.092;7.080;2022-09-12T02:29:12;8.53;;;6.30;;
22985;SDS011;11659;51.092;7.080;2022-09-12T02:31:39;8.53;;;6.40;;
22985;SDS011;11659;51.092;7.080;2022-09-12T02:34:13;8.90;;;6.10;;
22985;SDS011;11659;51.092;7.080;2022-09-12T02:36:52;8.47;;;6.47;;
22985;SDS011;11659;51.092;7.080;2022-09-12T02:39:30;7.97;;;6.10;;
22985;SDS011;11659;51.092;7.080;2022-09-12T02:41:56;8.97;;;6.20;;
22985;SDS011;11659;51.092;7.080;2022-09-12T02:44:25;7.90;;;5.83;;
22985;SDS011;11659;51.092;7.080;2022-09-12T02:46:54;8.00;;;6.20;;
22985;SDS011;11659;51.092;7.080;2022-09-12T02:49:24;7.83;;;5.83;;
22985;SDS011;11659;51.092;7.080;2022-09-12T02:51:50;7.63;;;5.93;;
22985;SDS011;11659;51.092;7.080;2022-09-12T02:54:16;7.20;;;5.47;;
22985;SDS011;11659;51.092;7.080;2022-09-12T02:56:44;7.93;;;5.83;;
22985;SDS011;11659;51.092;7.080;2022-09-12T02:59:11;6.83;;;5.73;;
22985;SDS011;11659;51.092;7.080;2022-09-12T03:01:48;7.80;;;5.73;;
22985;SDS011;11659;51.092;7.080;2022-09-12T03:04:27;6.80;;;5.40;;
22985;SDS011;11659;51.092;7.080;2022-09-12T03:07:12;7.53;;;5.80;;
22985;SDS011;11659;51.092;7.080;2022-09-12T03:09:42;7.37;;;5.63;;
22985;SDS011;11659;51.092;7.080;2022-09-12T03:12:24;7.17;;;5.77;;
22985;SDS011;11659;51.092;7.080;2022-09-12T03:15:03;8.87;;;6.43;;
22985;SDS011;11659;51.092;7.080;2022-09-12T03:17:54;8.67;;;6.30;;
22985;SDS011;11659;51.092;7.080;2022-09-12T03:20:31;7.97;;;5.63;;
22985;SDS011;11659;51.092;7.080;2022-09-12T03:23:09;8.20;;;6.40;;
22985;SDS011;11659;51.092;7.080;2022-09-12T03:25:43;7.83;;;5.80;;
22985;SDS011;11659;51.092;7.080;2022-09-12T03:28:13;8.13;;;5.93;;
22985;SDS011;11659;51.092;7.080;2022-09-12T03:30:42;7.13;;;5.57;;
22985;SDS011;11659;51.092;7.080;2022-09-12T03:33:11;7.20;;;5.37;;
22985;SDS011;11659;51.092;7.080;2022-09-12T03:35:39;6.73;;;5.23;;
22985;SDS011;11659;51.092;7.080;2022-09-12T03:38:05;6.60;;;5.17;;
22985;SDS011;11659;51.092;7.080;2022-09-12T03:40:32;8.00;;;5.80;;
22985;SDS011;11659;51.092;7.080;2022-09-12T03:42:58;7.07;;;5.00;;
22985;SDS011;11659;51.092;7.080;2022-09-12T03:45:24;7.93;;;6.00;;
22985;SDS011;11659;51.092;7.080;2022-09-12T03:47:50;7.53;;;5.60;;
22985;SDS011;11659;51.092;7.080;2022-09-12T03:50:17;6.50;;;5.27;;
22985;SDS011;11659;51.092;7.080;2022-09-12T03:52:43;7.93;;;5.73;;
22985;SDS011;11659;51.092;7.080;2022-09-12T03:55:09;7.20;;;5.37;;
22985;SDS011;11659;51.092;7.080;2022-09-12T03:57:36;7.20;;;5.57;;
22985;SDS011;11659;51.092;7.080;2022-09-12T04:00:02;7.67;;;5.57;;
22985;SDS011;11659;51.092;7.080;2022-09-12T04:02:38;6.17;;;5.20;;
22985;SDS011;11659;51.092;7.080;2022-09-12T04:05:04;6.63;;;4.80;;
22985;SDS011;11659;51.092;7.080;2022-09-12T04:07:31;6.37;;;4.77;;
22985;SDS011;11659;51.092;7.080;2022-09-12T04:09:57;6.03;;;5.20;;
22985;SDS011;11659;51.092;7.080;2022-09-12T04:12:23;7.47;;;5.67;;
22985;SDS011;11659;51.092;7.080;2022-09-12T04:14:49;6.40;;;5.17;;
22985;SDS011;11659;51.092;7.080;2022-09-12T04:17:15;8.30;;;5.50;;
22985;SDS011;11659;51.092;7.080;2022-09-12T04:19:41;7.37;;;5.23;;
22985;SDS011;11659;51.092;7.080;2022-09-12T04:22:07;7.57;;;5.07;;
22985;SDS011;11659;51.092;7.080;2022-09-12T04:24:34;6.20;;;5.17;;
22985;SDS011;11659;51.092;7.080;2022-09-12T04:27:00;6.37;;;5.30;;
22985;SDS011;11659;51.092;7.080;2022-09-12T04:29:26;7.77;;;5.47;;
22985;SDS011;11659;51.092;7.080;2022-09-12T04:31:52;7.07;;;6.00;;
22985;SDS011;11659;51.092;7.080;2022-09-12T04:34:18;6.13;;;5.17;;
22985;SDS011;11659;51.092;7.080;2022-09-12T04:36:44;7.50;;;5.60;;
22985;SDS011;11659;51.092;7.080;2022-09-12T04:39:10;7.23;;;5.23;;
22985;SDS011;11659;51.092;7.080;2022-09-12T04:41:38;7.50;;;5.30;;
22985;SDS011;11659;51.092;7.080;2022-09-12T04:44:06;6.27;;;4.87;;
22985;SDS011;11659;51.092;7.080;2022-09-12T04:46:35;6.90;;;5.07;;
22985;SDS011;11659;51.092;7.080;2022-09-12T04:49:03;6.77;;;5.03;;
22985;SDS011;11659;51.092;7.080;2022-09-12T04:51:30;7.13;;;4.97;;
22985;SDS011;11659;51.092;7.080;2022-09-12T04:53:58;5.57;;;4.97;;
22985;SDS011;11659;51.092;7.080;2022-09-12T04:56:25;6.30;;;5.17;;
22985;SDS011;11659;51.092;7.080;2022-09-12T04:58:55;6.10;;;5.10;;
22985;SDS011;11659;51.092;7.080;2022-09-12T05:01:21;7.30;;;5.27;;
22985;SDS011;11659;51.092;7.080;2022-09-12T05:03:48;7.30;;;5.30;;
22985;SDS011;11659;51.092;7.080;2022-09-12T05:06:16;7.33;;;5.00;;
22985;SDS011;11659;51.092;7.080;2022-09-12T05:08:43;6.67;;;5.43;;
22985;SDS011;11659;51.092;7.080;2022-09-12T05:11:10;5.63;;;4.77;;
22985;SDS011;11659;51.092;7.080;2022-09-12T05:13:38;6.47;;;5.17;;
22985;SDS011;11659;51.092;7.080;2022-09-12T05:16:06;7.40;;;4.83;;
22985;SDS011;11659;51.092;7.080;2022-09-12T05:18:34;6.03;;;4.90;;
22985;SDS011;11659;51.092;7.080;2022-09-12T05:21:01;5.70;;;4.80;;
22985;SDS011;11659;51.092;7.080;2022-09-12T05:23:28;6.20;;;4.80;;
22985;SDS011;11659;51.092;7.080;2022-09-12T05:25:55;7.30;;;4.70;;
22985;SDS011;11659;51.092;7.080;2022-09-12T05:28:22;5.73;;;5.13;;
22985;SDS011;11659;51.092;7.080;2022-09-12T05:30:58;5.40;;;4.70;;
22985;SDS011;11659;51.092;7.080;2022-09-12T05:33:26;6.17;;;4.80;;
22985;SDS011;11659;51.092;7.080;2022-09-12T05:35:52;6.37;;;5.27;;
22985;SDS011;11659;51.092;7.080;2022-09-12T05:38:18;6.97;;;5.23;;
22985;SDS011;11659;51.092;7.080;2022-09-12T05:40:44;5.40;;;4.83;;
22985;SDS011;11659;51.092;7.080;2022-09-12T05:43:10;6.90;;;5.20;;
22985;SDS011;11659;51.092;7.080;2022-09-12T05:45:38;6.37;;;4.97;;
22985;SDS011;11659;51.092;7.080;2022-09-12T05:50:50;5.83;;;4.83;;
22985;SDS011;11659;51.092;7.080;2022-09-12T05:53:16;5.67;;;4.73;;
22985;SDS011;11659;51.092;7.080;2022-09-12T05:55:44;5.97;;;4.67;;
22985;SDS011;11659;51.092;7.080;2022-09-12T05:58:10;5.77;;;4.33;;
22985;SDS011;11659;51.092;7.080;2022-09-12T06:00:35;5.80;;;4.73;;
22985;SDS011;11659;51.092;7.080;2022-09-12T06:03:01;5.87;;;4.40;;
22985;SDS011;11659;51.092;7.080;2022-09-12T06:05:27;5.50;;;4.20;;
22985;SDS011;11659;51.092;7.080;2022-09-12T06:07:54;5.27;;;4.43;;
22985;SDS011;11659;51.092;7.080;2022-09-12T06:10:20;5.57;;;4.60;;
22985;SDS011;11659;51.092;7.080;2022-09-12T06:12:47;5.77;;;4.97;;
22985;SDS011;11659;51.092;7.080;2022-09-12T06:15:13;6.57;;;4.80;;
22985;SDS011;11659;51.092;7.080;2022-09-12T06:17:40;5.10;;;4.53;;
22985;SDS011;11659;51.092;7.080;2022-09-12T06:20:06;5.30;;;4.50;;
22985;SDS011;11659;51.092;7.080;2022-09-12T06:22:33;6.70;;;4.90;;
22985;SDS011;11659;51.092;7.080;2022-09-12T06:25:00;6.50;;;4.73;;
22985;SDS011;11659;51.092;7.080;2022-09-12T06:27:26;4.90;;;4.40;;
22985;SDS011;11659;51.092;7.080;2022-09-12T06:29:52;6.00;;;4.70;;
22985;SDS011;11659;51.092;7.080;2022-09-12T06:32:18;6.60;;;4.90;;
22985;SDS011;11659;51.092;7.080;2022-09-12T06:34:43;5.87;;;4.40;;
22985;SDS011;11659;51.092;7.080;2022-09-12T06:37:12;5.07;;;4.30;;
22985;SDS011;11659;51.092;7.080;2022-09-12T06:39:38;7.00;;;4.90;;
22985;SDS011;11659;51.092;7.080;2022-09-12T06:42:05;5.43;;;4.60;;
22985;SDS011;11659;51.092;7.080;2022-09-12T06:44:34;5.37;;;4.80;;
22985;SDS011;11659;51.092;7.080;2022-09-12T06:47:00;6.00;;;4.90;;
22985;SDS011;11659;51.092;7.080;2022-09-12T06:49:26;6.83;;;5.20;;
22985;SDS011;11659;51.092;7.080;2022-09-12T06:51:52;5.93;;;4.90;;
22985;SDS011;11659;51.092;7.080;2022-09-12T06:54:18;5.23;;;4.37;;
22985;SDS011;11659;51.092;7.080;2022-09-12T06:56:44;5.07;;;4.43;;
22985;SDS011;11659;51.092;7.080;2022-09-12T06:59:11;5.00;;;4.50;;
22985;SDS011;11659;51.092;7.080;2022-09-12T07:01:37;5.93;;;4.80;;
22985;SDS011;11659;51.092;7.080;2022-09-12T07:04:04;6.87;;;4.90;;
22985;SDS011;11659;51.092;7.080;2022-09-12T07:06:34;5.90;;;4.77;;
22985;SDS011;11659;51.092;7.080;2022-09-12T07:09:02;6.10;;;4.93;;
22985;SDS011;11659;51.092;7.080;2022-09-12T07:11:29;6.00;;;4.73;;
22985;SDS011;11659;51.092;7.080;2022-09-12T07:13:57;6.00;;;5.03;;
22985;SDS011;11659;51.092;7.080;2022-09-12T07:16:26;5.97;;;4.53;;
22985;SDS011;11659;51.092;7.080;2022-09-12T07:18:53;6.33;;;4.90;;
22985;SDS011;11659;51.092;7.080;2022-09-12T07:21:21;6.07;;;5.47;;
22985;SDS011;11659;51.092;7.080;2022-09-12T07:23:47;7.67;;;5.43;;
22985;SDS011;11659;51.092;7.080;2022-09-12T07:26:16;7.50;;;5.93;;
22985;SDS011;11659;51.092;7.080;2022-09-12T07:28:42;7.60;;;5.87;;
22985;SDS011;11659;51.092;7.080;2022-09-12T07:31:09;8.50;;;6.47;;
22985;SDS011;11659;51.092;7.080;2022-09-12T07:33:37;6.33;;;5.37;;
22985;SDS011;11659;51.092;7.080;2022-09-12T07:36:05;6.90;;;5.87;;
22985;SDS011;11659;51.092;7.080;2022-09-12T07:38:34;7.33;;;5.80;;
22985;SDS011;11659;51.092;7.080;2022-09-12T07:41:01;7.20;;;6.13;;
22985;SDS011;11659;51.092;7.080;2022-09-12T07:43:34;7.03;;;5.93;;
22985;SDS011;11659;51.092;7.080;2022-09-12T07:46:00;8.30;;;6.40;;
22985;SDS011;11659;51.092;7.080;2022-09-12T07:48:27;7.33;;;6.13;;
22985;SDS011;11659;51.092;7.080;2022-09-12T07:50:57;9.13;;;6.80;;
22985;SDS011;11659;51.092;7.080;2022-09-12T07:53:24;9.33;;;6.17;;
22985;SDS011;11659;51.092;7.080;2022-09-12T07:55:51;7.73;;;6.03;;
22985;SDS011;11659;51.092;7.080;2022-09-12T07:58:18;9.03;;;5.67;;
22985;SDS011;11659;51.092;7.080;2022-09-12T08:00:44;6.57;;;5.27;;
22985;SDS011;11659;51.092;7.080;2022-09-12T08:03:10;8.10;;;5.67;;
22985;SDS011;11659;51.092;7.080;2022-09-12T08:05:36;7.50;;;5.37;;
22985;SDS011;11659;51.092;7.080;2022-09-12T08:08:03;7.93;;;5.90;;
22985;SDS011;11659;51.092;7.080;2022-09-12T08:10:29;7.00;;;5.47;;
22985;SDS011;11659;51.092;7.080;2022-09-12T08:12:56;6.73;;;5.77;;
22985;SDS011;11659;51.092;7.080;2022-09-12T08:15:23;7.27;;;6.07;;
22985;SDS011;11659;51.092;7.080;2022-09-12T08:17:49;7.67;;;5.80;;
22985;SDS011;11659;51.092;7.080;2022-09-12T08:20:15;6.93;;;5.70;;
22985;SDS011;11659;51.092;7.080;2022-09-12T08:22:42;7.17;;;5.40;;
22985;SDS011;11659;51.092;7.080;2022-09-12T08:25:09;7.40;;;5.87;;
22985;SDS011;11659;51.092;7.080;2022-09-12T08:27:36;6.70;;;5.57;;
22985;SDS011;11659;51.092;7.080;2022-09-12T08:30:02;6.53;;;5.43;;
22985;SDS011;11659;51.092;7.080;2022-09-12T08:32:28;7.67;;;5.33;;
22985;SDS011;11659;51.092;7.080;2022-09-12T08:34:54;5.13;;;4.63;;
22985;SDS011;11659;51.092;7.080;2022-09-12T08:37:20;5.20;;;4.70;;
22985;SDS011;11659;51.092;7.080;2022-09-12T08:39:47;5.37;;;4.73;;
22985;SDS011;11659;51.092;7.080;2022-09-12T08:42:15;6.13;;;4.73;;
22985;SDS011;11659;51.092;7.080;2022-09-12T08:44:58;5.67;;;4.97;;
22985;SDS011;11659;51.092;7.080;2022-09-12T08:47:34;4.70;;;4.20;;
22985;SDS011;11659;51.092;7.080;2022-09-12T08:50:07;5.20;;;4.63;;
22985;SDS011;11659;51.092;7.080;2022-09-12T08:52:40;6.07;;;4.83;;
22985;SDS011;11659;51.092;7.080;2022-09-12T08:55:20;7.40;;;5.33;;
22985;SDS011;11659;51.092;7.080;2022-09-12T08:57:52;5.67;;;5.10;;
22985;SDS011;11659;51.092;7.080;2022-09-12T09:00:18;6.27;;;5.10;;
22985;SDS011;11659;51.092;7.080;2022-09-12T09:03:03;5.93;;;4.83;;
22985;SDS011;11659;51.092;7.080;2022-09-12T09:05:46;5.03;;;4.50;;
22985;SDS011;11659;51.092;7.080;2022-09-12T09:08:21;5.50;;;4.50;;
22985;SDS011;11659;51.092;7.080;2022-09-12T09:10:58;4.33;;;3.63;;
22985;SDS011;11659;51.092;7.080;2022-09-12T09:13:36;4.63;;;4.07;;
22985;SDS011;11659;51.092;7.080;2022-09-12T09:16:30;5.60;;;4.40;;
22985;SDS011;11659;51.092;7.080;2022-09-12T09:19:00;5.07;;;4.33;;
22985;SDS011;11659;51.092;7.080;2022-09-12T09:21:30;5.43;;;4.63;;
22985;SDS011;11659;51.092;7.080;2022-09-12T09:24:00;5.37;;;4.17;;
22985;SDS011;11659;51.092;7.080;2022-09-12T09:26:33;4.20;;;3.80;;
22985;SDS011;11659;51.092;7.080;2022-09-12T09:29:10;5.27;;;4.40;;
22985;SDS011;11659;51.092;7.080;2022-09-12T09:31:41;4.03;;;3.63;;
22985;SDS011;11659;51.092;7.080;2022-09-12T09:34:11;4.57;;;4.00;;
22985;SDS011;11659;51.092;7.080;2022-09-12T09:36:43;4.43;;;3.87;;
22985;SDS011;11659;51.092;7.080;2022-09-12T09:39:17;4.43;;;3.93;;
22985;SDS011;11659;51.092;7.080;2022-09-12T09:42:01;5.03;;;3.80;;
22985;SDS011;11659;51.092;7.080;2022-09-12T09:44:38;4.67;;;3.73;;
22985;SDS011;11659;51.092;7.080;2022-09-12T09:47:05;4.17;;;3.60;;
22985;SDS011;11659;51.092;7.080;2022-09-12T09:49:34;4.47;;;3.77;;
22985;SDS011;11659;51.092;7.080;2022-09-12T09:52:01;5.00;;;3.73;;
22985;SDS011;11659;51.092;7.080;2022-09-12T09:54:31;4.23;;;3.30;;
22985;SDS011;11659;51.092;7.080;2022-09-12T09:57:00;4.33;;;3.93;;
22985;SDS011;11659;51.092;7.080;2022-09-12T09:59:27;3.53;;;3.23;;
22985;SDS011;11659;51.092;7.080;2022-09-12T10:01:55;3.83;;;3.40;;
22985;SDS011;11659;51.092;7.080;2022-09-12T10:04:26;3.73;;;3.43;;
22985;SDS011;11659;51.092;7.080;2022-09-12T10:06:56;4.57;;;3.70;;
22985;SDS011;11659;51.092;7.080;2022-09-12T10:09:24;5.43;;;3.93;;
22985;SDS011;11659;51.092;7.080;2022-09-12T10:11:51;4.30;;;3.90;;
22985;SDS011;11659;51.092;7.080;2022-09-12T10:14:26;4.10;;;3.70;;
22985;SDS011;11659;51.092;7.080;2022-09-12T10:17:03;4.03;;;3.67;;
22985;SDS011;11659;51.092;7.080;2022-09-12T10:19:47;4.40;;;3.63;;
22985;SDS011;11659;51.092;7.080;2022-09-12T10:22:15;3.77;;;3.47;;
22985;SDS011;11659;51.092;7.080;2022-09-12T10:24:46;3.80;;;3.50;;
22985;SDS011;11659;51.092;7.080;2022-09-12T10:27:14;3.90;;;3.60;;
22985;SDS011;11659;51.092;7.080;2022-09-12T10:29:45;3.77;;;3.40;;
22985;SDS011;11659;51.092;7.080;2022-09-12T10:32:19;4.13;;;3.30;;
22985;SDS011;11659;51.092;7.080;2022-09-12T10:34:51;3.73;;;3.23;;
22985;SDS011;11659;51.092;7.080;2022-09-12T10:37:21;3.80;;;3.50;;
22985;SDS011;11659;51.092;7.080;2022-09-12T10:39:50;3.70;;;3.40;;
22985;SDS011;11659;51.092;7.080;2022-09-12T10:45:15;4.53;;;3.50;;
22985;SDS011;11659;51.092;7.080;2022-09-12T10:47:45;4.57;;;3.30;;
22985;SDS011;11659;51.092;7.080;2022-09-12T10:50:18;2.90;;;2.70;;
22985;SDS011;11659;51.092;7.080;2022-09-12T10:52:46;3.07;;;2.87;;
22985;SDS011;11659;51.092;7.080;2022-09-12T10:55:12;2.90;;;2.60;;
22985;SDS011;11659;51.092;7.080;2022-09-12T10:57:48;3.40;;;2.63;;
22985;SDS011;11659;51.092;7.080;2022-09-12T11:00:36;3.53;;;3.07;;
22985;SDS011;11659;51.092;7.080;2022-09-12T11:03:14;3.33;;;2.63;;
22985;SDS011;11659;51.092;7.080;2022-09-12T11:05:50;3.50;;;3.20;;
22985;SDS011;11659;51.092;7.080;2022-09-12T11:08:26;3.43;;;3.03;;
22985;SDS011;11659;51.092;7.080;2022-09-12T11:11:05;3.53;;;2.87;;
22985;SDS011;11659;51.092;7.080;2022-09-12T11:13:44;3.30;;;3.00;;
22985;SDS011;11659;51.092;7.080;2022-09-12T11:16:20;2.83;;;2.60;;
22985;SDS011;11659;51.092;7.080;2022-09-12T11:19:11;2.70;;;2.50;;
22985;SDS011;11659;51.092;7.080;2022-09-12T11:22:08;3.20;;;2.90;;
22985;SDS011;11659;51.092;7.080;2022-09-12T11:24:47;3.27;;;3.07;;
22985;SDS011;11659;51.092;7.080;2022-09-12T11:27:32;3.23;;;2.93;;
22985;SDS011;11659;51.092;7.080;2022-09-12T11:30:10;2.73;;;2.50;;
22985;SDS011;11659;51.092;7.080;2022-09-12T11:32:46;2.83;;;2.63;;
22985;SDS011;11659;51.092;7.080;2022-09-12T11:35:26;3.13;;;2.83;;
22985;SDS011;11659;51.092;7.080;2022-09-12T11:37:57;3.20;;;2.63;;
22985;SDS011;11659;51.092;7.080;2022-09-12T11:40:55;2.93;;;2.63;;
22985;SDS011;11659;51.092;7.080;2022-09-12T11:43:28;2.70;;;2.50;;
22985;SDS011;11659;51.092;7.080;2022-09-12T11:46:01;2.93;;;2.37;;
22985;SDS011;11659;51.092;7.080;2022-09-12T11:48:37;2.63;;;2.43;;
22985;SDS011;11659;51.092;7.080;2022-09-12T11:51:14;2.63;;;2.40;;
22985;SDS011;11659;51.092;7.080;2022-09-12T11:53:43;2.43;;;2.13;;
22985;SDS011;11659;51.092;7.080;2022-09-12T11:56:13;2.63;;;2.43;;
22985;SDS011;11659;51.092;7.080;2022-09-12T11:58:41;2.60;;;2.40;;
22985;SDS011;11659;51.092;7.080;2022-09-12T12:01:14;2.47;;;2.27;;
22985;SDS011;11659;51.092;7.080;2022-09-12T12:03:46;2.60;;;2.40;;
22985;SDS011;11659;51.092;7.080;2022-09-12T12:06:14;2.37;;;2.17;;
22985;SDS011;11659;51.092;7.080;2022-09-12T12:08:46;2.47;;;2.10;;
22985;SDS011;11659;51.092;7.080;2022-09-12T12:11:13;2.77;;;2.17;;
22985;SDS011;11659;51.092;7.080;2022-09-12T12:13:44;2.70;;;2.40;;
22985;SDS011;11659;51.092;7.080;2022-09-12T12:16:13;2.70;;;2.23;;
22985;SDS011;11659;51.092;7.080;2022-09-12T12:18:43;2.97;;;2.30;;
22985;SDS011;11659;51.092;7.080;2022-09-12T12:24:11;2.20;;;2.00;;
22985;SDS011;11659;51.092;7.080;2022-09-12T12:26:42;3.00;;;2.30;;
22985;SDS011;11659;51.092;7.080;2022-09-12T12:32:20;2.10;;;2.00;;
22985;SDS011;11659;51.092;7.080;2022-09-12T12:34:46;2.93;;;2.10;;
22985;SDS011;11659;51.092;7.080;2022-09-12T12:40:20;1.83;;;1.73;;
22985;SDS011;11659;51.092;7.080;2022-09-12T12:42:59;2.33;;;2.00;;
22985;SDS011;11659;51.092;7.080;2022-09-12T12:45:45;2.00;;;1.80;;
22985;SDS011;11659;51.092;7.080;2022-09-12T12:48:27;2.93;;;2.00;;
22985;SDS011;11659;51.092;7.080;2022-09-12T12:51:26;2.30;;;2.00;;
22985;SDS011;11659;51.092;7.080;2022-09-12T12:54:00;2.30;;;2.00;;
22985;SDS011;11659;51.092;7.080;2022-09-12T12:56:38;2.27;;;1.90;;
22985;SDS011;11659;51.092;7.080;2022-09-12T12:59:12;2.13;;;1.93;;
22985;SDS011;11659;51.092;7.080;2022-09-12T13:01:43;2.50;;;1.90;;
22985;SDS011;11659;51.092;7.080;2022-09-12T13:04:12;2.30;;;2.10;;
22985;SDS011;11659;51.092;7.080;2022-09-12T13:06:42;2.37;;;2.00;;
22985;SDS011;11659;51.092;7.080;2022-09-12T13:09:18;2.67;;;1.90;;
22985;SDS011;11659;51.092;7.080;2022-09-12T13:11:46;3.17;;;2.40;;
22985;SDS011;11659;51.092;7.080;2022-09-12T13:14:36;2.10;;;1.90;;
22985;SDS011;11659;51.092;7.080;2022-09-12T13:17:14;2.10;;;1.90;;
22985;SDS011;11659;51.092;7.080;2022-09-12T13:20:04;2.03;;;1.93;;
22985;SDS011;11659;51.092;7.080;2022-09-12T13:22:46;2.10;;;1.90;;
22985;SDS011;11659;51.092;7.080;2022-09-12T13:25:20;2.30;;;1.90;;
22985;SDS011;11659;51.092;7.080;2022-09-12T13:27:57;2.00;;;1.80;;
22985;SDS011;11659;51.092;7.080;2022-09-12T13:30:24;2.27;;;2.07;;
22985;SDS011;11659;51.092;7.080;2022-09-12T13:32:51;2.47;;;2.27;;
22985;SDS011;11659;51.092;7.080;2022-09-12T13:35:19;2.33;;;1.90;;
22985;SDS011;11659;51.092;7.080;2022-09-12T13:37:53;3.27;;;1.90;;
22985;SDS011;11659;51.092;7.080;2022-09-12T13:40:27;1.77;;;1.67;;
22985;SDS011;11659;51.092;7.080;2022-09-12T13:43:06;2.03;;;1.80;;
22985;SDS011;11659;51.092;7.080;2022-09-12T13:45:37;2.10;;;1.80;;
22985;SDS011;11659;51.092;7.080;2022-09-12T13:48:04;2.27;;;1.90;;
22985;SDS011;11659;51.092;7.080;2022-09-12T13:50:35;1.80;;;1.70;;
22985;SDS011;11659;51.092;7.080;2022-09-12T13:53:05;2.30;;;2.10;;
22985;SDS011;11659;51.092;7.080;2022-09-12T13:55:37;2.77;;;2.03;;
22985;SDS011;11659;51.092;7.080;2022-09-12T13:58:06;1.90;;;1.80;;
22985;SDS011;11659;51.092;7.080;2022-09-12T14:00:41;1.97;;;1.83;;
22985;SDS011;11659;51.092;7.080;2022-09-12T14:03:13;2.20;;;2.00;;
22985;SDS011;11659;51.092;7.080;2022-09-12T14:06:09;2.30;;;2.10;;
22985;SDS011;11659;51.092;7.080;2022-09-12T14:08:37;2.50;;;2.23;;
22985;SDS011;11659;51.092;7.080;2022-09-12T14:11:07;2.20;;;2.00;;
22985;SDS011;11659;51.092;7.080;2022-09-12T14:13:35;2.30;;;2.10;;
22985;SDS011;11659;51.092;7.080;2022-09-12T14:16:03;2.10;;;1.90;;
22985;SDS011;11659;51.092;7.080;2022-09-12T14:18:34;2.10;;;1.90;;
22985;SDS011;11659;51.092;7.080;2022-09-12T14:21:05;2.03;;;1.70;;
22985;SDS011;11659;51.092;7.080;2022-09-12T14:23:35;2.20;;;2.00;;
22985;SDS011;11659;51.092;7.080;2022-09-12T14:26:07;2.57;;;2.37;;
22985;SDS011;11659;51.092;7.080;2022-09-12T14:28:38;2.23;;;2.03;;
22985;SDS011;11659;51.092;7.080;2022-09-12T14:31:05;2.20;;;2.00;;
22985;SDS011;11659;51.092;7.080;2022-09-12T14:33:45;2.27;;;2.07;;
22985;SDS011;11659;51.092;7.080;2022-09-12T14:36:16;2.10;;;1.90;;
22985;SDS011;11659;51.092;7.080;2022-09-12T14:38:51;1.80;;;1.70;;
22985;SDS011;11659;51.092;7.080;2022-09-12T14:41:22;2.10;;;1.90;;
22985;SDS011;11659;51.092;7.080;2022-09-12T14:43:52;2.00;;;1.90;;
22985;SDS011;11659;51.092;7.080;2022-09-12T14:46:22;1.93;;;1.83;;
22985;SDS011;11659;51.092;7.080;2022-09-12T14:48:51;1.80;;;1.70;;
22985;SDS011;11659;51.092;7.080;2022-09-12T14:51:20;2.10;;;1.90;;
22985;SDS011;11659;51.092;7.080;2022-09-12T14:53:49;2.00;;;1.80;;
22985;SDS011;11659;51.092;7.080;2022-09-12T14:56:15;1.70;;;1.43;;
22985;SDS011;11659;51.092;7.080;2022-09-12T14:58:45;2.20;;;2.00;;
22985;SDS011;11659;51.092;7.080;2022-09-12T15:01:23;2.53;;;1.90;;
22985;SDS011;11659;51.092;7.080;2022-09-12T15:03:50;1.70;;;1.60;;
22985;SDS011;11659;51.092;7.080;2022-09-12T15:06:19;1.77;;;1.67;;
22985;SDS011;11659;51.092;7.080;2022-09-12T15:08:47;2.03;;;1.83;;
22985;SDS011;11659;51.092;7.080;2022-09-12T15:11:13;1.97;;;1.77;;
22985;SDS011;11659;51.092;7.080;2022-09-12T15:13:40;1.80;;;1.70;;
22985;SDS011;11659;51.092;7.080;2022-09-12T15:16:08;2.03;;;1.80;;
22985;SDS011;11659;51.092;7.080;2022-09-12T15:18:35;1.63;;;1.53;;
22985;SDS011;11659;51.092;7.080;2022-09-12T15:21:02;2.10;;;1.90;;